createdAt,value
2019-04-16T00:01:56.597Z,16.00
2019-04-16T00:04:26.821Z,13.57
2019-04-16T00:07:13.534Z,15.40
2019-04-16T00:09:46.609Z,18.57
2019-04-16T00:12:23.765Z,14.23
2019-04-16T00:14:54.222Z,12.53
2019-04-16T00:17:22.878Z,14.03
2019-04-16T00:19:51.287Z,15.47
2019-04-16T00:22:24.862Z,15.50
2019-04-16T00:24:53.845Z,16.60
2019-04-16T00:27:22.209Z,14.03
2019-04-16T00:29:50.806Z,13.80
2019-04-16T00:32:20.925Z,16.37
2019-04-16T00:34:49.260Z,17.53
2019-04-16T00:37:20.402Z,18.20
2019-04-16T00:39:47.715Z,16.13
2019-04-16T00:42:16.415Z,13.93
2019-04-16T00:44:44.734Z,14.23
2019-04-16T00:47:12.969Z,16.23
2019-04-16T00:49:41.272Z,16.50
2019-04-16T00:52:09.722Z,15.13
2019-04-16T00:54:39.355Z,16.00
2019-04-16T00:57:08.269Z,14.50
2019-04-16T00:59:36.537Z,15.00
2019-04-16T01:02:05.113Z,13.67
2019-04-16T01:04:33.439Z,14.90
2019-04-16T01:07:01.977Z,15.90
2019-04-16T01:09:30.294Z,13.97
2019-04-16T01:11:58.663Z,15.83
2019-04-16T01:14:27.465Z,14.90
2019-04-16T01:16:56.398Z,14.15
2019-04-16T01:19:24.648Z,15.67
2019-04-16T01:21:53.407Z,14.87
2019-04-16T01:24:21.839Z,18.23
2019-04-16T01:26:55.488Z,17.13
2019-04-16T01:29:23.023Z,16.95
2019-04-16T01:32:11.663Z,16.60
2019-04-16T01:34:57.932Z,14.80
2019-04-16T01:37:43.126Z,16.27
2019-04-16T01:40:18.406Z,16.73
2019-04-16T01:42:44.461Z,16.47
2019-04-16T01:45:12.748Z,14.73
2019-04-16T01:47:41.221Z,18.07
2019-04-16T01:50:13.001Z,18.75
2019-04-16T01:52:39.863Z,16.77
2019-04-16T01:55:08.210Z,16.33
2019-04-16T01:57:36.648Z,14.73
2019-04-16T02:00:08.457Z,16.47
2019-04-16T02:02:37.482Z,18.03
2019-04-16T02:05:07.375Z,17.00
2019-04-16T02:07:35.999Z,14.83
2019-04-16T02:10:07.326Z,18.97
2019-04-16T02:12:35.602Z,19.17
2019-04-16T02:15:08.822Z,17.53
2019-04-16T02:17:38.295Z,16.30
2019-04-16T02:20:07.591Z,18.53
2019-04-16T02:22:37.167Z,19.13
2019-04-16T02:25:05.842Z,18.10
2019-04-16T02:27:34.494Z,17.43
2019-04-16T02:30:05.134Z,18.57
2019-04-16T02:32:33.844Z,23.23
2019-04-16T02:35:02.678Z,20.23
2019-04-16T02:37:35.507Z,19.50
2019-04-16T02:40:01.191Z,19.27
2019-04-16T02:42:32.139Z,15.97
2019-04-16T02:45:00.780Z,17.13
2019-04-16T02:47:29.024Z,19.00
2019-04-16T02:49:58.390Z,16.97
2019-04-16T02:52:28.311Z,19.50
2019-04-16T02:55:13.292Z,20.07
2019-04-16T02:58:01.243Z,20.00
2019-04-16T03:00:31.399Z,18.23
2019-04-16T03:03:01.539Z,21.87
2019-04-16T03:05:34.317Z,18.97
2019-04-16T03:08:05.025Z,20.83
2019-04-16T03:10:33.906Z,15.70
2019-04-16T03:13:02.255Z,17.80
2019-04-16T03:15:50.929Z,19.57
2019-04-16T03:18:21.132Z,17.97
2019-04-16T03:20:49.398Z,18.43
2019-04-16T03:23:17.807Z,18.07
2019-04-16T03:25:46.280Z,15.97
2019-04-16T03:28:14.685Z,18.77
2019-04-16T03:30:43.297Z,19.13
2019-04-16T03:33:14.661Z,19.83
2019-04-16T03:35:41.947Z,17.13
2019-04-16T03:38:10.452Z,24.43
2019-04-16T03:40:38.966Z,15.93
2019-04-16T03:43:07.370Z,21.17
2019-04-16T03:45:37.509Z,19.97
2019-04-16T03:48:05.756Z,16.63
2019-04-16T03:50:34.300Z,17.40
2019-04-16T03:53:02.861Z,18.30
2019-04-16T03:55:31.412Z,20.00
2019-04-16T03:58:05.152Z,16.17
2019-04-16T04:00:30.433Z,17.87
2019-04-16T04:02:58.675Z,20.60
2019-04-16T04:05:26.938Z,18.63
2019-04-16T04:07:55.595Z,18.07
2019-04-16T04:10:30.673Z,17.50
2019-04-16T04:12:56.061Z,17.67
2019-04-16T04:15:26.323Z,16.23
2019-04-16T04:17:54.752Z,20.33
2019-04-16T04:20:23.297Z,17.60
2019-04-16T04:22:51.622Z,21.53
2019-04-16T04:25:21.642Z,18.70
2019-04-16T04:27:50.075Z,16.12
2019-04-16T04:30:20.399Z,20.13
2019-04-16T04:32:49.026Z,16.67
2019-04-16T04:35:21.032Z,20.00
2019-04-16T04:37:47.851Z,17.93
2019-04-16T04:40:17.561Z,17.93
2019-04-16T04:42:50.596Z,22.00
2019-04-16T04:45:19.195Z,18.47
2019-04-16T04:47:51.016Z,16.70
2019-04-16T04:50:17.658Z,18.63
2019-04-16T04:52:46.833Z,18.13
2019-04-16T04:55:17.084Z,17.73
2019-04-16T04:57:45.398Z,17.83
2019-04-16T05:00:13.756Z,19.82
2019-04-16T05:02:43.760Z,16.53
2019-04-16T05:05:24.446Z,21.62
2019-04-16T05:07:49.501Z,18.50
2019-04-16T05:10:17.892Z,19.12
2019-04-16T05:12:46.173Z,18.03
2019-04-16T05:15:14.749Z,18.50
2019-04-16T05:17:43.035Z,23.47
2019-04-16T05:20:14.920Z,21.50
2019-04-16T05:22:41.316Z,18.50
2019-04-16T05:25:10.195Z,19.00
2019-04-16T05:27:41.079Z,18.07
2019-04-16T05:30:09.434Z,22.40
2019-04-16T05:32:37.702Z,18.13
2019-04-16T05:35:10.321Z,19.57
2019-04-16T05:37:36.831Z,17.57
2019-04-16T05:40:08.415Z,17.20
2019-04-16T05:42:36.651Z,16.80
2019-04-16T05:45:06.528Z,19.20
2019-04-16T05:47:34.865Z,19.57
2019-04-16T05:50:03.184Z,20.00
2019-04-16T05:52:35.908Z,17.70
2019-04-16T05:55:06.977Z,21.30
2019-04-16T05:57:41.004Z,19.10
2019-04-16T06:00:10.914Z,20.13
2019-04-16T06:02:43.569Z,19.32
2019-04-16T06:05:12.512Z,18.67
2019-04-16T06:07:41.274Z,19.47
2019-04-16T06:10:09.803Z,18.15
2019-04-16T06:12:40.059Z,19.27
2019-04-16T06:15:22.261Z,21.90
2019-04-16T06:17:51.543Z,17.73
2019-04-16T06:20:21.779Z,18.07
2019-04-16T06:22:51.891Z,19.90
2019-04-16T06:25:28.473Z,18.53
2019-04-16T06:28:16.409Z,18.92
2019-04-16T06:30:52.214Z,19.73
2019-04-16T06:33:31.483Z,19.60
2019-04-16T06:36:06.303Z,17.00
2019-04-16T06:38:48.361Z,21.47
2019-04-16T06:41:18.385Z,21.23
2019-04-16T06:43:51.299Z,19.53
2019-04-16T06:46:30.590Z,20.07
2019-04-16T06:49:00.614Z,19.70
2019-04-16T06:51:33.416Z,15.50
2019-04-16T06:54:09.399Z,17.60
2019-04-16T06:56:54.581Z,18.03
2019-04-16T06:59:30.477Z,19.67
2019-04-16T07:02:15.136Z,20.33
2019-04-16T07:04:47.810Z,17.17
2019-04-16T07:07:18.248Z,18.63
2019-04-16T07:09:56.738Z,17.87
2019-04-16T07:12:23.845Z,18.63
2019-04-16T07:14:52.246Z,21.93
2019-04-16T07:17:20.535Z,20.20
2019-04-16T07:19:48.818Z,17.80
2019-04-16T07:22:20.718Z,19.63
2019-04-16T07:24:48.762Z,18.77
2019-04-16T07:27:20.212Z,16.20
2019-04-16T07:29:51.814Z,22.80
2019-04-16T07:32:31.097Z,21.23
2019-04-16T07:35:00.984Z,17.80
2019-04-16T07:37:46.412Z,18.50
2019-04-16T07:40:32.854Z,14.40
2019-04-16T07:43:19.007Z,18.17
2019-04-16T07:46:05.514Z,16.73
2019-04-16T07:48:35.885Z,16.87
2019-04-16T07:51:12.723Z,20.67
2019-04-16T07:53:53.546Z,19.73
2019-04-16T07:56:23.585Z,18.50
2019-04-16T07:58:51.897Z,15.37
2019-04-16T08:01:20.483Z,16.73
2019-04-16T08:03:48.737Z,17.13
2019-04-16T08:06:17.186Z,18.30
2019-04-16T08:08:46.438Z,16.80
2019-04-16T08:11:18.075Z,17.05
2019-04-16T08:13:47.113Z,15.75
2019-04-16T08:16:15.378Z,19.13
2019-04-16T08:18:50.319Z,16.20
2019-04-16T08:21:22.019Z,16.67
2019-04-16T08:23:52.902Z,20.23
2019-04-16T08:26:20.765Z,17.57
2019-04-16T08:28:48.997Z,16.60
2019-04-16T08:31:20.647Z,16.75
2019-04-16T08:33:48.890Z,18.60
2019-04-16T08:36:17.147Z,17.17
2019-04-16T08:38:45.521Z,17.17
2019-04-16T08:41:19.959Z,17.97
2019-04-16T08:43:44.039Z,17.50
2019-04-16T08:46:12.469Z,19.40
2019-04-16T08:48:40.723Z,18.17
2019-04-16T08:51:09.132Z,18.37
2019-04-16T08:53:37.523Z,16.97
2019-04-16T08:56:05.907Z,16.47
2019-04-16T08:58:35.635Z,19.63
2019-04-16T09:01:06.457Z,20.97
2019-04-16T09:03:34.862Z,20.23
2019-04-16T09:06:04.462Z,16.83
2019-04-16T09:08:53.178Z,18.90
2019-04-16T09:11:36.042Z,19.77
2019-04-16T09:14:07.615Z,18.37
2019-04-16T09:16:37.567Z,21.07
2019-04-16T09:19:19.782Z,20.23
2019-04-16T09:21:48.013Z,20.20
2019-04-16T09:24:40.491Z,19.77
2019-04-16T09:27:12.585Z,19.33
2019-04-16T09:29:45.691Z,20.73
2019-04-16T09:32:18.779Z,17.57
2019-04-16T09:35:09.661Z,18.07
2019-04-16T09:37:40.304Z,18.77
2019-04-16T09:40:22.068Z,17.93
2019-04-16T09:42:50.869Z,16.27
2019-04-16T09:45:19.378Z,17.63
2019-04-16T09:47:49.270Z,16.93
2019-04-16T09:50:17.518Z,18.70
2019-04-16T09:52:45.866Z,16.17
2019-04-16T09:55:15.182Z,18.87
2019-04-16T09:57:44.302Z,17.17
2019-04-16T10:00:16.830Z,17.35
2019-04-16T10:02:44.562Z,19.60
2019-04-16T10:05:13.011Z,15.93
2019-04-16T10:07:42.767Z,16.83
2019-04-16T10:10:11.300Z,18.62
2019-04-16T10:12:41.401Z,19.80
2019-04-16T10:15:09.786Z,16.62
2019-04-16T10:17:38.524Z,20.67
2019-04-16T10:20:06.878Z,17.98
2019-04-16T10:22:35.452Z,16.37
2019-04-16T10:25:14.722Z,15.93
2019-04-16T10:27:44.985Z,18.27
2019-04-16T10:30:17.741Z,17.32
2019-04-16T10:32:46.544Z,21.20
2019-04-16T10:35:15.306Z,17.27
2019-04-16T10:37:43.687Z,20.17
2019-04-16T10:40:28.724Z,16.70
2019-04-16T10:43:15.300Z,20.27
2019-04-16T10:45:48.434Z,15.40
2019-04-16T10:48:30.682Z,20.20
2019-04-16T10:51:00.753Z,15.73
2019-04-16T10:53:49.087Z,18.47
2019-04-16T10:56:27.889Z,18.60
2019-04-16T10:59:13.453Z,16.47
2019-04-16T11:01:45.094Z,18.40
2019-04-16T11:04:15.287Z,16.50
2019-04-16T11:06:47.943Z,18.17
2019-04-16T11:09:16.645Z,20.12
2019-04-16T11:11:46.733Z,20.00
2019-04-16T11:14:15.306Z,19.40
2019-04-16T11:16:45.498Z,21.63
2019-04-16T11:19:15.204Z,20.72
2019-04-16T11:21:43.560Z,20.67
2019-04-16T11:24:11.891Z,19.50
2019-04-16T11:26:44.402Z,24.47
2019-04-16T11:29:16.018Z,19.52
2019-04-16T11:31:44.605Z,19.80
2019-04-16T11:34:13.421Z,20.12
2019-04-16T11:36:42.015Z,20.83
2019-04-16T11:39:11.191Z,17.47
2019-04-16T11:41:39.499Z,22.20
2019-04-16T11:44:15.708Z,24.60
2019-04-16T11:46:37.987Z,22.20
2019-04-16T11:49:06.347Z,20.47
2019-04-16T11:51:34.711Z,20.10
2019-04-16T11:54:03.122Z,19.20
2019-04-16T11:56:31.501Z,19.73
2019-04-16T11:58:59.779Z,22.33
2019-04-16T12:01:46.261Z,22.43
2019-04-16T12:04:28.470Z,21.53
2019-04-16T12:07:16.812Z,21.27
2019-04-16T12:09:56.426Z,21.73
2019-04-16T12:12:29.427Z,19.63
2019-04-16T12:14:59.382Z,18.47
2019-04-16T12:17:29.361Z,20.07
2019-04-16T12:20:05.692Z,21.27
2019-04-16T12:22:52.129Z,19.53
2019-04-16T12:25:38.637Z,20.13
2019-04-16T12:28:12.009Z,22.80
2019-04-16T12:30:44.091Z,21.87
2019-04-16T12:33:14.572Z,23.93
2019-04-16T12:35:56.940Z,25.37
2019-04-16T12:38:27.029Z,22.70
2019-04-16T12:40:56.959Z,25.60
2019-04-16T12:43:36.917Z,21.03
2019-04-16T12:46:10.307Z,20.87
2019-04-16T12:48:40.883Z,21.73
2019-04-16T12:51:13.550Z,29.40
2019-04-16T12:53:43.566Z,25.07
2019-04-16T12:56:30.389Z,22.65
2019-04-16T12:59:06.543Z,29.43
2019-04-16T13:01:39.233Z,22.77
2019-04-16T13:04:09.385Z,22.73
2019-04-16T13:06:42.896Z,20.23
2019-04-16T13:09:29.074Z,23.47
2019-04-16T13:11:59.140Z,22.97
2019-04-16T13:14:32.158Z,22.63
2019-04-16T13:17:19.467Z,25.33
2019-04-16T13:19:50.095Z,24.30
2019-04-16T13:22:36.063Z,21.15
2019-04-16T13:25:23.692Z,28.00
2019-04-16T13:27:53.083Z,24.30
2019-04-16T13:30:21.583Z,24.63
2019-04-16T13:32:50.025Z,24.67
2019-04-16T13:35:18.303Z,27.50
2019-04-16T13:37:46.852Z,24.30
2019-04-16T13:40:17.438Z,24.97
2019-04-16T13:42:45.891Z,25.80
2019-04-16T13:45:32.979Z,22.58
2019-04-16T13:48:15.465Z,26.67
2019-04-16T13:50:40.732Z,26.37
2019-04-16T13:53:08.639Z,25.70
2019-04-16T13:55:41.602Z,24.65
2019-04-16T13:58:20.937Z,26.17
2019-04-16T14:00:51.469Z,26.60
2019-04-16T14:03:23.971Z,23.65
2019-04-16T14:05:51.366Z,24.73
2019-04-16T14:08:19.942Z,25.93
2019-04-16T14:10:48.816Z,25.23
2019-04-16T14:13:17.296Z,26.93
2019-04-16T14:15:45.597Z,25.17
2019-04-16T14:18:14.011Z,27.20
2019-04-16T14:20:42.536Z,26.80
2019-04-16T14:23:10.993Z,28.47
2019-04-16T14:25:39.581Z,31.60
2019-04-16T14:28:08.472Z,25.10
2019-04-16T14:30:39.592Z,26.63
2019-04-16T14:33:08.558Z,25.87
2019-04-16T14:35:40.030Z,25.90
2019-04-16T14:38:07.086Z,26.60
2019-04-16T14:40:35.322Z,29.90
2019-04-16T14:43:04.605Z,25.53
2019-04-16T14:45:53.638Z,28.17
2019-04-16T14:48:08.905Z,22.97
2019-04-16T14:50:37.159Z,25.50
2019-04-16T14:53:05.831Z,22.57
2019-04-16T14:55:35.773Z,25.73
2019-04-16T14:58:16.015Z,23.73
2019-04-16T15:00:47.831Z,28.20
2019-04-16T15:03:27.666Z,26.40
2019-04-16T15:06:03.343Z,26.77
2019-04-16T15:08:33.269Z,29.73
2019-04-16T15:11:19.281Z,20.33
2019-04-16T15:13:49.318Z,22.87
2019-04-16T15:16:22.480Z,20.23
2019-04-16T15:19:08.809Z,18.17
2019-04-16T15:21:55.179Z,15.63
2019-04-16T15:24:25.084Z,18.23
2019-04-16T15:27:00.731Z,17.60
2019-04-16T15:29:30.709Z,18.75
2019-04-16T15:32:04.108Z,18.07
2019-04-16T15:34:34.995Z,14.70
2019-04-16T15:37:07.902Z,16.63
2019-04-16T15:39:37.780Z,15.77
2019-04-16T15:42:17.498Z,19.60
2019-04-16T15:44:45.583Z,16.93
2019-04-16T15:47:18.397Z,18.63
2019-04-16T15:49:49.792Z,21.27
2019-04-16T15:52:20.015Z,19.60
2019-04-16T15:54:52.735Z,18.40
2019-04-16T15:57:34.876Z,23.15
2019-04-16T16:00:22.055Z,19.30
2019-04-16T16:03:04.262Z,18.10
2019-04-16T16:05:43.240Z,18.07
2019-04-16T16:08:13.116Z,22.87
2019-04-16T16:10:45.286Z,20.40
2019-04-16T16:13:14.751Z,19.40
2019-04-16T16:15:43.069Z,20.17
2019-04-16T16:18:11.389Z,19.30
2019-04-16T16:20:39.813Z,20.57
2019-04-16T16:23:08.262Z,21.93
2019-04-16T16:25:41.172Z,21.53
2019-04-16T16:28:06.464Z,19.03
2019-04-16T16:30:34.702Z,20.17
2019-04-16T16:33:03.246Z,21.60
2019-04-16T16:35:34.865Z,19.47
2019-04-16T16:38:01.852Z,19.97
2019-04-16T16:40:30.642Z,24.90
2019-04-16T16:42:59.349Z,22.37
2019-04-16T16:45:46.172Z,21.87
2019-04-16T16:48:14.937Z,23.62
2019-04-16T16:50:44.093Z,24.10
2019-04-16T16:53:31.528Z,23.25
2019-04-16T16:56:01.536Z,22.37
2019-04-16T16:58:37.203Z,25.40
2019-04-16T17:01:14.010Z,22.37
2019-04-16T17:03:47.079Z,24.10
2019-04-16T17:06:16.978Z,23.87
2019-04-16T17:08:45.530Z,19.40
2019-04-16T17:11:18.157Z,22.77
2019-04-16T17:13:46.634Z,23.33
2019-04-16T17:16:15.083Z,16.63
2019-04-16T17:18:45.436Z,21.60
2019-04-16T17:21:13.318Z,23.05
2019-04-16T17:23:41.738Z,20.20
2019-04-16T17:26:09.979Z,22.53
2019-04-16T17:28:40.406Z,16.90
2019-04-16T17:31:09.013Z,18.43
2019-04-16T17:33:37.378Z,12.87
2019-04-16T17:36:06.459Z,14.90
2019-04-16T17:38:36.709Z,17.40
2019-04-16T17:41:06.978Z,12.07
2019-04-16T17:43:59.898Z,14.30
2019-04-16T17:46:34.145Z,12.80
2019-04-16T17:49:04.394Z,11.60
2019-04-16T17:51:43.395Z,14.03
2019-04-16T17:54:30.012Z,13.70
2019-04-16T17:57:17.432Z,14.43
2019-04-16T17:59:50.022Z,15.60
2019-04-16T18:02:28.074Z,12.97
2019-04-16T18:04:57.649Z,16.13
2019-04-16T18:07:42.721Z,15.80
2019-04-16T18:10:33.726Z,15.40
2019-04-16T18:13:06.878Z,12.73
2019-04-16T18:15:43.415Z,13.97
2019-04-16T18:18:16.823Z,15.65
2019-04-16T18:20:56.740Z,15.70
2019-04-16T18:23:16.693Z,11.70
2019-04-16T18:26:02.759Z,10.53
2019-04-16T18:28:32.659Z,13.63
2019-04-16T18:31:11.774Z,12.23
2019-04-16T18:33:44.891Z,14.40
2019-04-16T18:36:23.996Z,14.07
2019-04-16T18:38:56.260Z,13.50
2019-04-16T18:41:41.872Z,14.60
2019-04-16T18:44:14.490Z,14.95
2019-04-16T18:46:50.954Z,14.45
2019-04-16T18:49:23.666Z,13.93
2019-04-16T18:51:52.042Z,12.90
2019-04-16T18:54:20.621Z,11.97
2019-04-16T18:56:48.900Z,12.80
2019-04-16T18:59:19.231Z,12.10
2019-04-16T19:01:55.386Z,12.60
2019-04-16T19:04:23.667Z,15.40
2019-04-16T19:06:52.365Z,21.80
2019-04-16T19:09:21.160Z,16.12
2019-04-16T19:11:49.483Z,12.53
2019-04-16T19:14:17.713Z,12.98
2019-04-16T19:16:45.965Z,11.57
2019-04-16T19:19:14.198Z,12.00
2019-04-16T19:21:42.850Z,10.93
2019-04-16T19:24:11.343Z,10.53
2019-04-16T19:26:39.574Z,10.87
2019-04-16T19:29:13.243Z,12.40
2019-04-16T19:31:37.802Z,11.13
2019-04-16T19:34:10.233Z,14.53
2019-04-16T19:36:36.005Z,11.43
2019-04-16T19:39:06.952Z,11.90
2019-04-16T19:41:35.810Z,11.57
2019-04-16T19:44:07.245Z,13.63
2019-04-16T19:46:34.237Z,11.30
2019-04-16T19:49:02.493Z,10.37
2019-04-16T19:51:30.777Z,11.03
2019-04-16T19:53:59.173Z,11.97
2019-04-16T19:56:27.468Z,11.37
2019-04-16T19:58:55.734Z,13.87
2019-04-16T20:01:23.987Z,14.07
2019-04-16T20:03:52.226Z,13.53
2019-04-16T20:06:25.291Z,12.88
2019-04-16T20:08:50.484Z,11.17
2019-04-16T20:11:21.354Z,13.73
2019-04-16T20:13:48.677Z,12.37
2019-04-16T20:16:17.008Z,15.57
2019-04-16T20:18:51.326Z,14.87
2019-04-16T20:21:15.201Z,11.80
2019-04-16T20:23:43.467Z,15.93
2019-04-16T20:26:11.683Z,11.40
2019-04-16T20:28:39.921Z,11.73
2019-04-16T20:31:08.174Z,12.40
2019-04-16T20:33:36.406Z,12.20
2019-04-16T20:36:04.761Z,13.90
2019-04-16T20:38:33.009Z,14.03
2019-04-16T20:41:01.237Z,12.00
2019-04-16T20:43:29.539Z,16.33
2019-04-16T20:45:57.785Z,13.07
2019-04-16T20:48:26.023Z,11.00
2019-04-16T20:50:58.812Z,12.10
2019-04-16T20:53:24.394Z,14.03
2019-04-16T20:55:52.619Z,11.45
2019-04-16T20:58:20.864Z,11.28
2019-04-16T21:00:50.788Z,11.27
2019-04-16T21:03:22.160Z,9.80
2019-04-16T21:05:57.852Z,11.07
2019-04-16T21:08:24.441Z,9.95
2019-04-16T21:10:49.082Z,10.27
2019-04-16T21:13:17.313Z,10.33
2019-04-16T21:15:45.575Z,10.67
2019-04-16T21:18:13.806Z,9.80
2019-04-16T21:20:42.037Z,10.00
2019-04-16T21:23:10.285Z,9.27
2019-04-16T21:25:38.541Z,10.37
2019-04-16T21:28:08.411Z,10.60
2019-04-16T21:30:36.936Z,10.13
2019-04-16T21:33:06.906Z,10.93
2019-04-16T21:35:36.861Z,8.93
2019-04-16T21:38:23.034Z,8.83
2019-04-16T21:40:52.840Z,11.47
2019-04-16T21:43:21.227Z,11.43
2019-04-16T21:45:49.481Z,10.00
2019-04-16T21:48:17.717Z,11.80
2019-04-16T21:50:47.567Z,10.63
2019-04-16T21:53:15.922Z,11.00
2019-04-16T21:55:44.162Z,8.73
2019-04-16T21:58:14.582Z,12.55
2019-04-16T22:00:53.556Z,9.70
2019-04-16T22:03:29.861Z,10.43
2019-04-16T22:05:58.102Z,8.93
2019-04-16T22:08:29.410Z,8.10
2019-04-16T22:10:56.311Z,11.87
2019-04-16T22:13:24.548Z,9.70
2019-04-16T22:15:53.689Z,8.93
2019-04-16T22:18:22.744Z,8.87
2019-04-16T22:20:51.865Z,10.38
2019-04-16T22:23:20.112Z,12.87
2019-04-16T22:25:48.346Z,14.77
2019-04-16T22:28:16.598Z,11.50
2019-04-16T22:30:44.842Z,10.77
2019-04-16T22:33:13.083Z,11.53
2019-04-16T22:35:41.330Z,13.47
2019-04-16T22:38:13.259Z,10.83
2019-04-16T22:40:43.914Z,12.90
2019-04-16T22:43:29.423Z,13.97
2019-04-16T22:45:59.413Z,12.30
2019-04-16T22:48:27.726Z,12.40
2019-04-16T22:50:55.986Z,9.10
2019-04-16T22:53:24.214Z,10.60
2019-04-16T22:55:56.400Z,16.37
2019-04-16T22:58:24.071Z,10.17
2019-04-16T23:00:55.846Z,13.63
2019-04-16T23:03:24.079Z,10.47
2019-04-16T23:05:52.448Z,11.17
2019-04-16T23:08:20.673Z,13.53
2019-04-16T23:10:50.606Z,14.33
2019-04-16T23:13:18.914Z,12.30
2019-04-16T23:15:47.146Z,14.70
2019-04-16T23:18:17.663Z,14.65
2019-04-16T23:20:45.370Z,12.17
2019-04-16T23:23:17.906Z,11.63
2019-04-16T23:25:43.572Z,12.00
2019-04-16T23:28:12.129Z,12.53
2019-04-16T23:30:42.477Z,11.83
2019-04-16T23:33:10.708Z,12.27
2019-04-16T23:35:43.375Z,12.73
2019-04-16T23:38:08.931Z,12.03
2019-04-16T23:40:37.173Z,15.23
2019-04-16T23:43:10.321Z,14.93
2019-04-16T23:45:40.238Z,11.87
2019-04-16T23:48:14.658Z,11.20
2019-04-16T23:50:45.306Z,12.37
2019-04-16T23:53:16.321Z,15.45
2019-04-16T23:55:52.357Z,11.43
2019-04-16T23:58:38.657Z,11.03
